sensor_id;sensor_type;location;lat;lon;timestamp;P1;P2;P0
13030;PMS7003;6582;54.644;9.760;2022-12-20T00:00:03;105.6;99.3;
13030;PMS7003;6582;54.644;9.760;2022-12-20T00:05:02;106.4;101.3;
13030;PMS7003;6582;54.644;9.760;2022-12-20T00:10:09;109.9;105.8;
13030;PMS7003;6582;54.644;9.760;2022-12-20T00:15:02;114.0;112.1;
13030;PMS7003;6582;54.644;9.760;2022-12-20T00:20:02;116.1;113.7;
13030;PMS7003;6582;54.644;9.760;2022-12-20T00:25:02;112.7;108.5;
13030;PMS7003;6582;54.644;9.760;2022-12-20T00:30:02;112.6;107.6;
13030;PMS7003;6582;54.644;9.760;2022-12-20T00:35:04;107.0;98.8;
13030;PMS7003;6582;54.644;9.760;2022-12-20T00:40:02;105.0;95.4;
13030;PMS7003;6582;54.644;9.760;2022-12-20T00:45:02;101.3;90.4;
13030;PMS7003;6582;54.644;9.760;2022-12-20T00:50:02;99.9;88.2;
13030;PMS7003;6582;54.644;9.760;2022-12-20T00:55:02;107.2;96.8;
13030;PMS7003;6582;54.644;9.760;2022-12-20T01:00:03;118.8;111.0;
13030;PMS7003;6582;54.644;9.760;2022-12-20T01:05:02;133.4;127.6;
13030;PMS7003;6582;54.644;9.760;2022-12-20T01:10:02;152.4;148.5;
13030;PMS7003;6582;54.644;9.760;2022-12-20T01:15:02;175.6;174.2;
13030;PMS7003;6582;54.644;9.760;2022-12-20T01:20:02;191.0;189.4;
13030;PMS7003;6582;54.644;9.760;2022-12-20T01:25:02;196.6;195.1;
13030;PMS7003;6582;54.644;9.760;2022-12-20T01:30:02;192.1;190.7;
13030;PMS7003;6582;54.644;9.760;2022-12-20T01:35:02;186.7;185.2;
13030;PMS7003;6582;54.644;9.760;2022-12-20T01:40:02;191.8;190.6;
13030;PMS7003;6582;54.644;9.760;2022-12-20T01:45:07;181.7;180.4;
13030;PMS7003;6582;54.644;9.760;2022-12-20T01:50:02;183.4;182.7;
13030;PMS7003;6582;54.644;9.760;2022-12-20T01:55:05;188.5;187.5;
13030;PMS7003;6582;54.644;9.760;2022-12-20T02:00:02;191.8;191.1;
13030;PMS7003;6582;54.644;9.760;2022-12-20T02:05:02;183.1;181.8;
13030;PMS7003;6582;54.644;9.760;2022-12-20T02:10:02;190.7;189.0;
13030;PMS7003;6582;54.644;9.760;2022-12-20T02:35:01;111.6;108.4;
13030;PMS7003;6582;54.644;9.760;2022-12-20T02:40:01;118.3;116.3;
13030;PMS7003;6582;54.644;9.760;2022-12-20T02:45:06;116.3;114.1;
13030;PMS7003;6582;54.644;9.760;2022-12-20T02:50:01;126.1;124.5;
13030;PMS7003;6582;54.644;9.760;2022-12-20T02:55:01;128.0;126.5;
13030;PMS7003;6582;54.644;9.760;2022-12-20T03:00:07;131.5;130.6;
13030;PMS7003;6582;54.644;9.760;2022-12-20T03:05:01;129.1;128.0;
13030;PMS7003;6582;54.644;9.760;2022-12-20T03:10:01;130.7;130.1;
13030;PMS7003;6582;54.644;9.760;2022-12-20T03:15:02;124.7;123.8;
13030;PMS7003;6582;54.644;9.760;2022-12-20T03:20:07;122.3;121.4;
13030;PMS7003;6582;54.644;9.760;2022-12-20T03:25:07;119.0;117.6;
13030;PMS7003;6582;54.644;9.760;2022-12-20T03:30:02;121.1;120.0;
13030;PMS7003;6582;54.644;9.760;2022-12-20T03:35:06;124.5;123.2;
13030;PMS7003;6582;54.644;9.760;2022-12-20T03:40:01;125.6;124.5;
13030;PMS7003;6582;54.644;9.760;2022-12-20T03:45:01;125.5;124.6;
13030;PMS7003;6582;54.644;9.760;2022-12-20T03:50:01;127.1;126.5;
13030;PMS7003;6582;54.644;9.760;2022-12-20T03:55:02;128.0;127.1;
13030;PMS7003;6582;54.644;9.760;2022-12-20T04:00:01;128.4;127.4;
13030;PMS7003;6582;54.644;9.760;2022-12-20T04:05:02;131.1;129.9;
13030;PMS7003;6582;54.644;9.760;2022-12-20T04:10:07;134.0;132.4;
13030;PMS7003;6582;54.644;9.760;2022-12-20T04:15:02;136.0;134.0;
13030;PMS7003;6582;54.644;9.760;2022-12-20T04:20:01;133.2;129.8;
13030;PMS7003;6582;54.644;9.760;2022-12-20T04:25:01;130.6;127.6;
13030;PMS7003;6582;54.644;9.760;2022-12-20T04:30:01;130.4;127.5;
13030;PMS7003;6582;54.644;9.760;2022-12-20T04:35:02;128.2;125.7;
13030;PMS7003;6582;54.644;9.760;2022-12-20T04:40:01;125.4;123.0;
13030;PMS7003;6582;54.644;9.760;2022-12-20T04:45:01;129.2;128.8;
13030;PMS7003;6582;54.644;9.760;2022-12-20T04:50:01;132.0;131.1;
13030;PMS7003;6582;54.644;9.760;2022-12-20T04:55:01;130.1;129.1;
13030;PMS7003;6582;54.644;9.760;2022-12-20T05:00:01;132.7;131.4;
13030;PMS7003;6582;54.644;9.760;2022-12-20T05:05:02;136.7;135.4;
13030;PMS7003;6582;54.644;9.760;2022-12-20T05:10:01;137.9;136.6;
13030;PMS7003;6582;54.644;9.760;2022-12-20T05:15:02;135.8;135.0;
13030;PMS7003;6582;54.644;9.760;2022-12-20T05:20:01;136.6;135.8;
13030;PMS7003;6582;54.644;9.760;2022-12-20T05:25:02;134.3;133.6;
13030;PMS7003;6582;54.644;9.760;2022-12-20T05:30:01;133.8;133.5;
13030;PMS7003;6582;54.644;9.760;2022-12-20T05:35:01;128.7;128.3;
13030;PMS7003;6582;54.644;9.760;2022-12-20T05:40:06;126.4;126.0;
13030;PMS7003;6582;54.644;9.760;2022-12-20T05:45:02;119.6;118.5;
13030;PMS7003;6582;54.644;9.760;2022-12-20T05:50:02;116.4;115.4;
13030;PMS7003;6582;54.644;9.760;2022-12-20T05:55:01;108.7;105.8;
13030;PMS7003;6582;54.644;9.760;2022-12-20T06:00:02;105.4;100.2;
13030;PMS7003;6582;54.644;9.760;2022-12-20T06:05:01;99.9;92.1;
13030;PMS7003;6582;54.644;9.760;2022-12-20T06:10:01;97.4;87.4;
13030;PMS7003;6582;54.644;9.760;2022-12-20T06:15:01;89.2;77.2;
13030;PMS7003;6582;54.644;9.760;2022-12-20T06:20:01;88.0;74.9;
13030;PMS7003;6582;54.644;9.760;2022-12-20T06:25:03;85.4;71.6;
13030;PMS7003;6582;54.644;9.760;2022-12-20T06:30:03;85.4;71.0;
13030;PMS7003;6582;54.644;9.760;2022-12-20T06:35:03;85.3;70.6;
13030;PMS7003;6582;54.644;9.760;2022-12-20T06:40:01;90.6;75.1;
13030;PMS7003;6582;54.644;9.760;2022-12-20T06:45:01;91.0;75.4;
13030;PMS7003;6582;54.644;9.760;2022-12-20T06:50:01;93.4;78.6;
13030;PMS7003;6582;54.644;9.760;2022-12-20T06:55:01;92.2;77.9;
13030;PMS7003;6582;54.644;9.760;2022-12-20T07:00:07;93.0;78.6;
13030;PMS7003;6582;54.644;9.760;2022-12-20T07:05:01;91.8;77.6;
13030;PMS7003;6582;54.644;9.760;2022-12-20T07:10:01;91.2;77.5;
13030;PMS7003;6582;54.644;9.760;2022-12-20T07:15:01;90.3;76.3;
13030;PMS7003;6582;54.644;9.760;2022-12-20T07:20:01;92.5;79.2;
13030;PMS7003;6582;54.644;9.760;2022-12-20T07:25:01;89.4;77.0;
13030;PMS7003;6582;54.644;9.760;2022-12-20T07:30:01;89.1;76.8;
13030;PMS7003;6582;54.644;9.760;2022-12-20T07:35:01;89.4;76.6;
13030;PMS7003;6582;54.644;9.760;2022-12-20T07:40:01;89.1;75.8;
13030;PMS7003;6582;54.644;9.760;2022-12-20T07:45:01;87.0;73.0;
13030;PMS7003;6582;54.644;9.760;2022-12-20T07:50:01;91.9;79.7;
13030;PMS7003;6582;54.644;9.760;2022-12-20T07:55:02;95.0;84.4;
13030;PMS7003;6582;54.644;9.760;2022-12-20T08:00:06;97.0;87.9;
13030;PMS7003;6582;54.644;9.760;2022-12-20T08:05:02;99.7;92.9;
13030;PMS7003;6582;54.644;9.760;2022-12-20T08:10:01;102.7;97.2;
13030;PMS7003;6582;54.644;9.760;2022-12-20T08:15:01;101.7;95.2;
13030;PMS7003;6582;54.644;9.760;2022-12-20T08:20:02;101.0;93.8;
13030;PMS7003;6582;54.644;9.760;2022-12-20T08:25:01;100.7;93.4;
13030;PMS7003;6582;54.644;9.760;2022-12-20T08:30:01;98.6;89.4;
13030;PMS7003;6582;54.644;9.760;2022-12-20T08:35:01;97.4;87.1;
13030;PMS7003;6582;54.644;9.760;2022-12-20T08:45:01;97.1;85.6;
13030;PMS7003;6582;54.644;9.760;2022-12-20T08:50:01;94.1;81.4;
13030;PMS7003;6582;54.644;9.760;2022-12-20T08:55:05;95.0;82.1;
13030;PMS7003;6582;54.644;9.760;2022-12-20T09:00:06;92.1;79.1;
13030;PMS7003;6582;54.644;9.760;2022-12-20T09:05:01;87.5;74.0;
13030;PMS7003;6582;54.644;9.760;2022-12-20T09:10:01;83.1;69.0;
13030;PMS7003;6582;54.644;9.760;2022-12-20T09:15:01;83.0;69.0;
13030;PMS7003;6582;54.644;9.760;2022-12-20T09:20:01;80.5;66.4;
13030;PMS7003;6582;54.644;9.760;2022-12-20T09:25:05;81.6;67.4;
13030;PMS7003;6582;54.644;9.760;2022-12-20T09:30:03;82.0;68.0;
13030;PMS7003;6582;54.644;9.760;2022-12-20T09:35:01;83.9;69.9;
13030;PMS7003;6582;54.644;9.760;2022-12-20T09:40:08;87.2;73.3;
13030;PMS7003;6582;54.644;9.760;2022-12-20T09:45:07;87.1;73.0;
13030;PMS7003;6582;54.644;9.760;2022-12-20T09:50:01;87.9;73.5;
13030;PMS7003;6582;54.644;9.760;2022-12-20T09:55:07;89.7;75.0;
13030;PMS7003;6582;54.644;9.760;2022-12-20T10:00:07;89.6;74.7;
13030;PMS7003;6582;54.644;9.760;2022-12-20T10:05:15;86.7;71.2;
13030;PMS7003;6582;54.644;9.760;2022-12-20T10:10:13;83.3;68.6;
13030;PMS7003;6582;54.644;9.760;2022-12-20T10:25:12;72.6;59.8;
13030;PMS7003;6582;54.644;9.760;2022-12-20T10:30:04;74.2;61.2;
13030;PMS7003;6582;54.644;9.760;2022-12-20T10:55:01;74.0;62.2;
13030;PMS7003;6582;54.644;9.760;2022-12-20T11:00:04;74.0;62.4;
13030;PMS7003;6582;54.644;9.760;2022-12-20T12:05:04;66.8;56.4;
13030;PMS7003;6582;54.644;9.760;2022-12-20T12:10:11;70.9;58.8;
13030;PMS7003;6582;54.644;9.760;2022-12-20T12:15:22;70.5;58.8;
13030;PMS7003;6582;54.644;9.760;2022-12-20T12:20:08;76.3;64.1;
13030;PMS7003;6582;54.644;9.760;2022-12-20T12:25:08;75.3;63.1;
13030;PMS7003;6582;54.644;9.760;2022-12-20T12:30:02;76.8;64.1;
13030;PMS7003;6582;54.644;9.760;2022-12-20T12:55:02;79.4;65.0;
13030;PMS7003;6582;54.644;9.760;2022-12-20T13:00:02;77.9;64.0;
13030;PMS7003;6582;54.644;9.760;2022-12-20T13:25:02;79.2;64.6;
13030;PMS7003;6582;54.644;9.760;2022-12-20T13:45:08;72.2;59.8;
13030;PMS7003;6582;54.644;9.760;2022-12-20T13:50:17;72.5;60.4;
13030;PMS7003;6582;54.644;9.760;2022-12-20T14:05:04;72.2;60.6;
13030;PMS7003;6582;54.644;9.760;2022-12-20T14:10:02;71.6;59.7;
13030;PMS7003;6582;54.644;9.760;2022-12-20T14:15:02;73.6;61.1;
13030;PMS7003;6582;54.644;9.760;2022-12-20T14:35:17;72.6;60.2;
13030;PMS7003;6582;54.644;9.760;2022-12-20T14:40:16;73.9;61.6;
13030;PMS7003;6582;54.644;9.760;2022-12-20T14:55:16;67.4;56.6;
13030;PMS7003;6582;54.644;9.760;2022-12-20T15:00:11;90.3;80.5;
13030;PMS7003;6582;54.644;9.760;2022-12-20T15:05:07;85.3;74.5;
13030;PMS7003;6582;54.644;9.760;2022-12-20T15:10:03;83.0;71.5;
13030;PMS7003;6582;54.644;9.760;2022-12-20T15:15:16;81.9;70.0;
13030;PMS7003;6582;54.644;9.760;2022-12-20T15:20:02;83.6;71.3;
13030;PMS7003;6582;54.644;9.760;2022-12-20T15:25:07;76.4;63.2;
13030;PMS7003;6582;54.644;9.760;2022-12-20T15:30:04;77.6;64.0;
13030;PMS7003;6582;54.644;9.760;2022-12-20T15:35:02;79.0;65.1;
13030;PMS7003;6582;54.644;9.760;2022-12-20T15:40:02;79.8;65.4;
13030;PMS7003;6582;54.644;9.760;2022-12-20T15:45:02;83.0;68.3;
13030;PMS7003;6582;54.644;9.760;2022-12-20T15:50:02;84.3;69.2;
13030;PMS7003;6582;54.644;9.760;2022-12-20T15:55:03;84.6;69.8;
13030;PMS7003;6582;54.644;9.760;2022-12-20T16:00:06;84.2;69.4;
13030;PMS7003;6582;54.644;9.760;2022-12-20T16:05:02;85.0;70.2;
13030;PMS7003;6582;54.644;9.760;2022-12-20T16:10:02;83.0;68.4;
13030;PMS7003;6582;54.644;9.760;2022-12-20T16:15:02;82.6;68.1;
13030;PMS7003;6582;54.644;9.760;2022-12-20T16:20:02;82.9;68.0;
13030;PMS7003;6582;54.644;9.760;2022-12-20T16:25:03;82.0;67.2;
13030;PMS7003;6582;54.644;9.760;2022-12-20T16:30:02;81.2;66.8;
13030;PMS7003;6582;54.644;9.760;2022-12-20T16:35:02;79.3;65.3;
13030;PMS7003;6582;54.644;9.760;2022-12-20T16:40:03;77.3;63.8;
13030;PMS7003;6582;54.644;9.760;2022-12-20T16:45:02;74.7;62.0;
13030;PMS7003;6582;54.644;9.760;2022-12-20T16:50:03;73.0;60.8;
13030;PMS7003;6582;54.644;9.760;2022-12-20T16:55:03;70.5;58.9;
13030;PMS7003;6582;54.644;9.760;2022-12-20T17:00:02;69.2;58.0;
13030;PMS7003;6582;54.644;9.760;2022-12-20T17:05:02;68.6;57.6;
13030;PMS7003;6582;54.644;9.760;2022-12-20T17:10:16;68.4;57.3;
13030;PMS7003;6582;54.644;9.760;2022-12-20T17:15:11;69.4;58.1;
13030;PMS7003;6582;54.644;9.760;2022-12-20T17:20:03;69.1;57.8;
13030;PMS7003;6582;54.644;9.760;2022-12-20T17:25:03;71.0;58.7;
13030;PMS7003;6582;54.644;9.760;2022-12-20T17:30:03;72.0;59.4;
13030;PMS7003;6582;54.644;9.760;2022-12-20T17:35:02;72.7;60.3;
13030;PMS7003;6582;54.644;9.760;2022-12-20T17:40:02;73.3;60.8;
13030;PMS7003;6582;54.644;9.760;2022-12-20T17:45:02;74.0;61.4;
13030;PMS7003;6582;54.644;9.760;2022-12-20T17:50:07;72.5;60.8;
13030;PMS7003;6582;54.644;9.760;2022-12-20T17:55:03;72.8;61.1;
13030;PMS7003;6582;54.644;9.760;2022-12-20T18:00:03;73.6;61.6;
13030;PMS7003;6582;54.644;9.760;2022-12-20T18:05:02;73.5;61.3;
13030;PMS7003;6582;54.644;9.760;2022-12-20T18:10:03;73.4;61.2;
13030;PMS7003;6582;54.644;9.760;2022-12-20T18:15:02;75.2;62.5;
13030;PMS7003;6582;54.644;9.760;2022-12-20T18:20:03;74.8;61.9;
13030;PMS7003;6582;54.644;9.760;2022-12-20T18:25:03;75.8;63.0;
13030;PMS7003;6582;54.644;9.760;2022-12-20T18:30:02;74.5;62.0;
13030;PMS7003;6582;54.644;9.760;2022-12-20T18:35:06;75.1;62.3;
13030;PMS7003;6582;54.644;9.760;2022-12-20T18:40:02;73.8;61.2;
13030;PMS7003;6582;54.644;9.760;2022-12-20T18:45:07;73.5;60.8;
13030;PMS7003;6582;54.644;9.760;2022-12-20T18:50:02;71.7;59.1;
13030;PMS7003;6582;54.644;9.760;2022-12-20T18:55:02;71.8;59.5;
13030;PMS7003;6582;54.644;9.760;2022-12-20T19:00:03;71.6;59.2;
13030;PMS7003;6582;54.644;9.760;2022-12-20T19:05:02;71.0;58.7;
13030;PMS7003;6582;54.644;9.760;2022-12-20T19:10:04;70.3;58.6;
13030;PMS7003;6582;54.644;9.760;2022-12-20T19:15:02;67.6;56.5;
13030;PMS7003;6582;54.644;9.760;2022-12-20T19:20:02;68.8;57.2;
13030;PMS7003;6582;54.644;9.760;2022-12-20T19:25:04;67.7;56.8;
13030;PMS7003;6582;54.644;9.760;2022-12-20T19:45:02;61.2;52.8;
13030;PMS7003;6582;54.644;9.760;2022-12-20T19:50:02;65.4;54.5;
13030;PMS7003;6582;54.644;9.760;2022-12-20T19:55:05;65.6;55.1;
13030;PMS7003;6582;54.644;9.760;2022-12-20T20:00:03;66.0;55.5;
13030;PMS7003;6582;54.644;9.760;2022-12-20T20:05:07;66.7;55.7;
13030;PMS7003;6582;54.644;9.760;2022-12-20T20:10:02;68.2;56.5;
13030;PMS7003;6582;54.644;9.760;2022-12-20T20:15:02;68.0;56.9;
13030;PMS7003;6582;54.644;9.760;2022-12-20T20:20:07;74.7;63.4;
13030;PMS7003;6582;54.644;9.760;2022-12-20T20:25:02;76.5;64.5;
13030;PMS7003;6582;54.644;9.760;2022-12-20T20:30:03;78.1;66.0;
13030;PMS7003;6582;54.644;9.760;2022-12-20T20:35:03;80.3;67.9;
13030;PMS7003;6582;54.644;9.760;2022-12-20T20:40:02;84.3;71.2;
13030;PMS7003;6582;54.644;9.760;2022-12-20T20:45:02;77.6;64.8;
13030;PMS7003;6582;54.644;9.760;2022-12-20T20:50:03;76.5;64.1;
13030;PMS7003;6582;54.644;9.760;2022-12-20T20:55:03;76.0;63.6;
13030;PMS7003;6582;54.644;9.760;2022-12-20T21:00:03;73.8;62.0;
13030;PMS7003;6582;54.644;9.760;2022-12-20T21:05:17;79.9;70.2;
13030;PMS7003;6582;54.644;9.760;2022-12-20T21:10:05;81.0;70.8;
13030;PMS7003;6582;54.644;9.760;2022-12-20T21:15:16;82.0;71.4;
13030;PMS7003;6582;54.644;9.760;2022-12-20T21:20:02;83.1;71.9;
13030;PMS7003;6582;54.644;9.760;2022-12-20T21:25:04;85.2;73.3;
13030;PMS7003;6582;54.644;9.760;2022-12-20T21:30:02;76.5;62.8;
13030;PMS7003;6582;54.644;9.760;2022-12-20T21:35:03;79.2;65.0;
13030;PMS7003;6582;54.644;9.760;2022-12-20T21:40:02;79.4;65.1;
13030;PMS7003;6582;54.644;9.760;2022-12-20T21:45:07;79.9;66.1;
13030;PMS7003;6582;54.644;9.760;2022-12-20T21:50:02;81.7;68.2;
13030;PMS7003;6582;54.644;9.760;2022-12-20T21:55:02;84.7;71.0;
13030;PMS7003;6582;54.644;9.760;2022-12-20T22:00:02;88.6;75.7;
13030;PMS7003;6582;54.644;9.760;2022-12-20T22:05:02;93.2;80.7;
13030;PMS7003;6582;54.644;9.760;2022-12-20T22:10:07;95.8;84.0;
13030;PMS7003;6582;54.644;9.760;2022-12-20T22:15:07;97.8;86.5;
13030;PMS7003;6582;54.644;9.760;2022-12-20T22:20:02;96.1;84.2;
13030;PMS7003;6582;54.644;9.760;2022-12-20T22:25:02;91.7;79.0;
13030;PMS7003;6582;54.644;9.760;2022-12-20T22:30:02;90.0;76.5;
13030;PMS7003;6582;54.644;9.760;2022-12-20T22:35:02;87.6;73.3;
13030;PMS7003;6582;54.644;9.760;2022-12-20T22:40:02;84.6;69.2;
13030;PMS7003;6582;54.644;9.760;2022-12-20T22:45:02;85.0;69.9;
13030;PMS7003;6582;54.644;9.760;2022-12-20T22:50:02;84.7;69.8;
13030;PMS7003;6582;54.644;9.760;2022-12-20T22:55:02;84.5;69.2;
13030;PMS7003;6582;54.644;9.760;2022-12-20T23:00:02;85.7;70.0;
13030;PMS7003;6582;54.644;9.760;2022-12-20T23:05:02;87.8;72.4;
13030;PMS7003;6582;54.644;9.760;2022-12-20T23:10:02;90.2;75.8;
13030;PMS7003;6582;54.644;9.760;2022-12-20T23:15:05;93.7;80.4;
13030;PMS7003;6582;54.644;9.760;2022-12-20T23:20:02;95.5;83.8;
13030;PMS7003;6582;54.644;9.760;2022-12-20T23:25:15;94.7;82.9;
13030;PMS7003;6582;54.644;9.760;2022-12-20T23:30:03;92.0;80.3;
13030;PMS7003;6582;54.644;9.760;2022-12-20T23:35:14;90.2;77.4;
13030;PMS7003;6582;54.644;9.760;2022-12-20T23:40:02;87.8;73.6;
13030;PMS7003;6582;54.644;9.760;2022-12-20T23:45:02;85.1;70.0;
13030;PMS7003;6582;54.644;9.760;2022-12-20T23:50:07;87.1;72.3;
13030;PMS7003;6582;54.644;9.760;2022-12-20T23:55:04;90.3;75.6;
